createdAt,value
2022-12-02T00:02:22.953Z,4.32
2022-12-02T00:04:58.546Z,4.22
2022-12-02T00:07:26.565Z,4.19
2022-12-02T00:09:54.380Z,4.01
2022-12-02T00:12:25.219Z,4.13
2022-12-02T00:14:57.245Z,4.07
2022-12-02T00:17:25.242Z,4.10
2022-12-02T00:19:53.422Z,4.25
2022-12-02T00:22:22.768Z,4.36
2022-12-02T00:24:50.953Z,4.36
2022-12-02T00:27:18.819Z,4.41
2022-12-02T00:29:46.571Z,4.34
2022-12-02T00:32:14.396Z,4.22
2022-12-02T00:34:42.110Z,4.26
2022-12-02T00:37:09.819Z,4.36
2022-12-02T00:39:38.976Z,4.53
2022-12-02T00:42:06.770Z,4.37
2022-12-02T00:44:52.039Z,4.37
2022-12-02T00:47:19.995Z,4.51
2022-12-02T00:49:47.772Z,4.58
2022-12-02T00:52:16.042Z,4.60
2022-12-02T00:54:45.103Z,4.61
2022-12-02T00:57:12.827Z,4.75
2022-12-02T00:59:40.569Z,4.82
2022-12-02T01:02:08.379Z,4.82
2022-12-02T01:04:36.192Z,4.83
2022-12-02T01:07:03.865Z,4.96
2022-12-02T01:09:31.808Z,5.02
2022-12-02T01:12:00.919Z,4.86
2022-12-02T01:14:28.969Z,4.96
2022-12-02T01:16:56.838Z,4.97
2022-12-02T01:19:24.776Z,5.08
2022-12-02T01:21:52.533Z,5.08
2022-12-02T01:24:20.341Z,5.06
2022-12-02T01:26:48.035Z,4.94
2022-12-02T01:29:17.154Z,4.76
2022-12-02T01:31:45.009Z,4.81
2022-12-02T01:34:12.852Z,4.82
2022-12-02T01:36:40.514Z,4.77
2022-12-02T01:39:08.280Z,4.65
2022-12-02T01:41:35.968Z,4.16
2022-12-02T01:44:03.728Z,4.15
2022-12-02T01:46:32.832Z,4.07
2022-12-02T01:49:00.668Z,3.96
2022-12-02T01:51:28.499Z,3.93
2022-12-02T01:53:56.419Z,3.94
2022-12-02T01:56:24.293Z,4.14
2022-12-02T01:58:52.099Z,4.25
2022-12-02T02:01:27.857Z,4.39
2022-12-02T02:03:57.166Z,4.48
2022-12-02T02:06:26.596Z,4.47
2022-12-02T02:08:55.023Z,4.53
2022-12-02T02:11:23.748Z,4.33
2022-12-02T02:13:51.613Z,4.09
2022-12-02T02:16:19.448Z,3.81
2022-12-02T02:18:47.287Z,3.55
2022-12-02T02:21:21.568Z,3.53
2022-12-02T02:23:50.835Z,3.42
2022-12-02T02:26:18.911Z,3.46
2022-12-02T02:28:46.863Z,3.66
2022-12-02T02:31:14.692Z,3.70
2022-12-02T02:33:42.840Z,3.71
2022-12-02T02:36:11.227Z,3.79
2022-12-02T02:38:39.852Z,3.87
2022-12-02T02:41:10.261Z,3.79
2022-12-02T02:43:39.356Z,3.71
2022-12-02T02:46:07.991Z,3.78
2022-12-02T02:48:36.833Z,3.85
2022-12-02T02:51:05.055Z,3.77
2022-12-02T02:53:32.989Z,3.59
2022-12-02T02:56:01.019Z,3.47
2022-12-02T02:58:30.201Z,3.54
2022-12-02T03:01:01.047Z,3.60
2022-12-02T03:03:32.672Z,3.78
2022-12-02T03:06:02.390Z,3.77
2022-12-02T03:08:32.366Z,3.55
2022-12-02T03:11:01.688Z,3.30
2022-12-02T03:13:32.333Z,3.31
2022-12-02T03:16:00.772Z,3.40
2022-12-02T03:18:28.772Z,3.30
2022-12-02T03:20:56.680Z,3.30
2022-12-02T03:23:24.707Z,3.29
2022-12-02T03:25:52.754Z,3.22
2022-12-02T03:28:20.772Z,2.97
2022-12-02T03:30:50.154Z,2.92
2022-12-02T03:33:18.099Z,2.98
2022-12-02T03:35:46.300Z,3.00
2022-12-02T03:38:14.189Z,2.96
2022-12-02T03:40:42.444Z,2.91
2022-12-02T03:43:10.340Z,2.96
2022-12-02T03:45:38.067Z,3.04
2022-12-02T03:48:07.664Z,2.77
2022-12-02T03:50:35.424Z,2.89
2022-12-02T03:53:03.456Z,2.95
2022-12-02T03:55:31.237Z,3.09
2022-12-02T03:58:05.132Z,3.35
2022-12-02T04:00:32.966Z,3.35
2022-12-02T04:03:00.873Z,3.44
2022-12-02T04:05:30.179Z,3.35
2022-12-02T04:07:58.066Z,3.36
2022-12-02T04:10:26.230Z,3.41
2022-12-02T04:12:54.017Z,3.22
2022-12-02T04:15:21.686Z,3.20
2022-12-02T04:17:49.378Z,3.20
2022-12-02T04:20:17.288Z,3.06
2022-12-02T04:22:46.305Z,3.06
2022-12-02T04:25:14.005Z,3.08
2022-12-02T04:27:41.752Z,3.25
2022-12-02T04:30:10.369Z,3.12
2022-12-02T04:32:38.114Z,2.78
2022-12-02T04:35:06.751Z,2.88
2022-12-02T04:37:34.550Z,3.06
2022-12-02T04:40:03.740Z,3.16
2022-12-02T04:42:31.600Z,3.13
2022-12-02T04:44:59.499Z,2.95
2022-12-02T04:47:27.176Z,2.85
2022-12-02T04:49:54.990Z,2.95
2022-12-02T04:52:22.745Z,2.73
2022-12-02T04:54:50.807Z,2.85
2022-12-02T04:57:20.305Z,2.88
2022-12-02T04:59:48.249Z,2.80
2022-12-02T05:02:16.015Z,2.75
2022-12-02T05:04:43.821Z,2.93
2022-12-02T05:07:11.583Z,2.85
2022-12-02T05:09:39.381Z,2.83
2022-12-02T05:12:07.404Z,2.74
2022-12-02T05:14:36.911Z,2.80
2022-12-02T05:17:04.654Z,2.83
2022-12-02T05:19:32.483Z,2.73
2022-12-02T05:22:00.274Z,2.81
2022-12-02T05:24:28.140Z,2.87
2022-12-02T05:26:55.884Z,2.95
2022-12-02T05:29:23.780Z,2.94
2022-12-02T05:31:52.961Z,2.85
2022-12-02T05:34:20.829Z,2.97
2022-12-02T05:36:48.833Z,2.93
2022-12-02T05:39:16.665Z,2.88
2022-12-02T05:41:45.668Z,2.84
2022-12-02T05:44:21.850Z,2.67
2022-12-02T05:46:50.243Z,2.55
2022-12-02T05:49:21.481Z,2.58
2022-12-02T05:51:57.102Z,2.51
2022-12-02T05:54:25.816Z,2.54
2022-12-02T05:56:53.712Z,2.64
2022-12-02T05:59:23.285Z,2.75
2022-12-02T06:01:52.898Z,2.70
2022-12-02T06:04:25.649Z,2.62
2022-12-02T06:06:54.680Z,2.70
2022-12-02T06:09:26.696Z,2.71
2022-12-02T06:11:54.531Z,2.57
2022-12-02T06:14:24.153Z,2.66
2022-12-02T06:16:54.874Z,2.51
2022-12-02T06:19:37.440Z,2.33
2022-12-02T06:22:07.444Z,2.44
2022-12-02T06:24:36.079Z,2.40
2022-12-02T06:27:04.036Z,2.42
2022-12-02T06:29:33.352Z,2.53
2022-12-02T06:32:01.798Z,2.57
2022-12-02T06:34:37.649Z,2.55
2022-12-02T06:37:14.586Z,2.63
2022-12-02T06:40:04.705Z,2.61
2022-12-02T06:42:33.800Z,2.51
2022-12-02T06:45:08.471Z,2.48
2022-12-02T06:48:04.828Z,2.53
2022-12-02T06:50:42.573Z,2.54
2022-12-02T06:53:33.655Z,2.54
2022-12-02T06:56:05.895Z,2.51
2022-12-02T06:58:36.940Z,2.56
2022-12-02T07:01:26.983Z,2.76
2022-12-02T07:04:03.907Z,2.86
2022-12-02T07:06:34.336Z,2.86
2022-12-02T07:09:04.436Z,2.77
2022-12-02T07:11:53.251Z,2.67
2022-12-02T07:14:31.262Z,2.85
2022-12-02T07:17:03.010Z,2.74
2022-12-02T07:19:40.018Z,2.70
2022-12-02T07:22:15.736Z,2.64
2022-12-02T07:24:47.272Z,2.65
2022-12-02T07:27:22.288Z,2.78
2022-12-02T07:29:51.023Z,2.83
2022-12-02T07:32:18.887Z,2.79
2022-12-02T07:34:46.671Z,2.75
2022-12-02T07:37:16.038Z,2.90
2022-12-02T07:39:44.044Z,2.88
2022-12-02T07:42:13.221Z,2.97
2022-12-02T07:44:41.143Z,2.99
2022-12-02T07:47:09.051Z,3.10
2022-12-02T07:49:36.887Z,3.07
2022-12-02T07:52:05.032Z,2.99
2022-12-02T07:54:34.451Z,2.74
2022-12-02T07:57:02.165Z,2.77
2022-12-02T07:59:29.924Z,2.78
2022-12-02T08:01:57.685Z,2.75
2022-12-02T08:04:25.548Z,2.84
2022-12-02T08:06:53.271Z,2.90
2022-12-02T08:09:21.131Z,2.98
2022-12-02T08:11:50.349Z,3.20
2022-12-02T08:14:18.180Z,3.31
2022-12-02T08:16:46.084Z,3.31
2022-12-02T08:19:14.231Z,3.36
2022-12-02T08:21:42.100Z,3.38
2022-12-02T08:24:10.068Z,3.40
2022-12-02T08:26:37.968Z,3.30
2022-12-02T08:29:07.112Z,3.24
2022-12-02T08:31:34.805Z,3.27
2022-12-02T08:34:07.032Z,3.30
2022-12-02T08:36:35.322Z,3.35
2022-12-02T08:39:05.600Z,3.42
2022-12-02T08:41:34.059Z,3.50
2022-12-02T08:44:01.899Z,3.60
2022-12-02T08:46:31.640Z,3.59
2022-12-02T08:49:00.105Z,3.51
2022-12-02T08:51:28.223Z,3.58
2022-12-02T08:53:56.134Z,3.59
2022-12-02T08:56:24.007Z,3.68
2022-12-02T08:58:51.898Z,3.69
2022-12-02T09:01:19.651Z,3.81
2022-12-02T09:03:48.843Z,4.02
2022-12-02T09:06:16.638Z,4.19
2022-12-02T09:08:44.410Z,4.45
2022-12-02T09:11:12.311Z,4.63
2022-12-02T09:13:40.164Z,4.63
2022-12-02T09:16:08.235Z,4.73
2022-12-02T09:18:36.040Z,4.87
2022-12-02T09:21:05.284Z,5.05
2022-12-02T09:23:33.068Z,5.16
2022-12-02T09:26:00.892Z,5.20
2022-12-02T09:28:28.793Z,5.18
2022-12-02T09:30:56.600Z,5.32
2022-12-02T09:33:27.995Z,5.34
2022-12-02T09:35:58.484Z,5.47
2022-12-02T09:38:31.183Z,5.63
2022-12-02T09:40:59.352Z,5.87
2022-12-02T09:43:27.931Z,6.00
2022-12-02T09:45:56.045Z,6.01
2022-12-02T09:48:24.192Z,6.11
2022-12-02T09:50:52.552Z,6.13
2022-12-02T09:53:21.233Z,6.14
2022-12-02T09:55:50.412Z,6.03
2022-12-02T09:58:20.336Z,6.12
2022-12-02T10:00:51.668Z,6.08
2022-12-02T10:03:23.818Z,6.11
2022-12-02T10:05:51.947Z,6.13
2022-12-02T10:08:23.356Z,6.20
2022-12-02T10:10:55.228Z,6.07
2022-12-02T10:13:24.589Z,6.21
2022-12-02T10:15:52.645Z,6.45
2022-12-02T10:18:23.351Z,6.71
2022-12-02T10:20:51.472Z,6.87
2022-12-02T10:23:20.657Z,6.91
2022-12-02T10:25:50.600Z,7.00
2022-12-02T10:28:29.141Z,7.26
2022-12-02T10:31:01.679Z,7.18
2022-12-02T10:33:31.237Z,7.19
2022-12-02T10:36:00.348Z,7.13
2022-12-02T10:38:31.222Z,7.35
2022-12-02T10:41:24.791Z,7.39
2022-12-02T10:44:07.635Z,7.48
2022-12-02T10:46:35.982Z,7.70
2022-12-02T10:49:19.580Z,7.82
2022-12-02T10:51:47.367Z,8.02
2022-12-02T10:54:24.659Z,7.98
2022-12-02T10:56:52.762Z,7.92
2022-12-02T10:59:22.971Z,7.78
2022-12-02T11:01:50.861Z,7.62
2022-12-02T11:04:18.908Z,7.95
2022-12-02T11:06:47.964Z,8.04
2022-12-02T11:09:39.589Z,8.05
2022-12-02T11:12:37.086Z,8.21
2022-12-02T11:15:36.181Z,8.23
2022-12-02T11:18:04.415Z,8.40
2022-12-02T11:20:37.889Z,7.90
2022-12-02T11:23:15.923Z,7.46
2022-12-02T11:26:09.522Z,7.79
2022-12-02T11:29:16.831Z,8.01
2022-12-02T11:32:02.243Z,7.70
2022-12-02T11:35:17.047Z,8.04
2022-12-02T11:37:45.718Z,8.16
2022-12-02T11:40:59.314Z,8.05
2022-12-02T11:44:10.105Z,8.11
2022-12-02T11:46:47.970Z,7.97
2022-12-02T11:49:29.884Z,7.97
2022-12-02T11:52:19.598Z,8.14
2022-12-02T11:54:52.505Z,8.06
2022-12-02T11:57:24.755Z,7.96
2022-12-02T11:59:52.765Z,7.89
2022-12-02T12:02:23.366Z,8.22
2022-12-02T12:05:01.377Z,8.10
2022-12-02T12:07:46.436Z,8.34
2022-12-02T12:10:29.334Z,8.43
2022-12-02T12:13:19.125Z,7.90
2022-12-02T12:15:55.422Z,8.12
2022-12-02T12:18:48.205Z,8.30
2022-12-02T12:21:38.280Z,7.94
2022-12-02T12:24:28.332Z,8.20
2022-12-02T12:26:57.338Z,8.21
2022-12-02T12:29:26.997Z,8.57
2022-12-02T12:31:55.198Z,8.54
2022-12-02T12:34:24.408Z,8.64
2022-12-02T12:36:52.324Z,8.71
2022-12-02T12:39:20.020Z,8.83
2022-12-02T12:42:03.127Z,9.00
2022-12-02T12:44:32.836Z,9.03
2022-12-02T12:47:02.647Z,8.94
2022-12-02T12:49:32.271Z,8.83
2022-12-02T12:52:00.350Z,8.67
2022-12-02T12:54:28.267Z,8.42
2022-12-02T12:56:55.977Z,8.54
2022-12-02T12:59:23.784Z,8.50
2022-12-02T13:01:51.850Z,8.64
2022-12-02T13:04:19.688Z,8.57
2022-12-02T13:06:48.820Z,8.72
2022-12-02T13:09:17.050Z,8.71
2022-12-02T13:11:44.863Z,8.92
2022-12-02T13:14:12.734Z,9.03
2022-12-02T13:16:40.612Z,8.88
2022-12-02T13:19:08.471Z,9.04
2022-12-02T13:21:36.281Z,9.37
2022-12-02T13:24:05.912Z,9.13
2022-12-02T13:26:33.691Z,9.23
2022-12-02T13:29:01.491Z,9.05
2022-12-02T13:31:29.357Z,9.04
2022-12-02T13:33:57.196Z,8.95
2022-12-02T13:36:26.207Z,8.74
2022-12-02T13:38:54.028Z,8.64
2022-12-02T13:41:23.212Z,8.64
2022-12-02T13:43:50.972Z,8.75
2022-12-02T13:46:18.743Z,8.83
2022-12-02T13:48:46.589Z,8.71
2022-12-02T13:51:14.266Z,8.57
2022-12-02T13:53:43.539Z,8.80
2022-12-02T13:56:11.432Z,9.01
2022-12-02T13:58:40.594Z,8.64
2022-12-02T14:01:08.631Z,8.64
2022-12-02T14:03:36.870Z,8.61
2022-12-02T14:06:04.976Z,8.79
2022-12-02T14:08:32.752Z,8.68
2022-12-02T14:11:00.441Z,8.58
2022-12-02T14:13:28.203Z,8.55
2022-12-02T14:15:57.315Z,8.22
2022-12-02T14:18:25.210Z,8.65
2022-12-02T14:20:52.963Z,8.33
2022-12-02T14:23:22.122Z,8.26
2022-12-02T14:25:49.925Z,8.40
2022-12-02T14:28:17.668Z,8.49
2022-12-02T14:30:45.582Z,8.34
2022-12-02T14:33:14.857Z,8.40
2022-12-02T14:35:43.310Z,8.33
2022-12-02T14:38:11.085Z,8.27
2022-12-02T14:40:38.853Z,8.56
2022-12-02T14:43:09.977Z,8.68
2022-12-02T14:45:41.976Z,8.83
2022-12-02T14:48:09.841Z,8.68
2022-12-02T14:50:39.214Z,8.79
2022-12-02T14:53:07.010Z,8.74
2022-12-02T14:55:34.759Z,8.68
2022-12-02T14:58:02.500Z,8.70
2022-12-02T15:00:30.289Z,8.63
2022-12-02T15:02:58.152Z,8.66
2022-12-02T15:05:25.892Z,8.62
2022-12-02T15:07:55.019Z,8.58
2022-12-02T15:10:22.853Z,8.35
2022-12-02T15:12:50.659Z,8.35
2022-12-02T15:18:06.426Z,8.49
2022-12-02T15:20:34.140Z,8.24
2022-12-02T15:23:03.250Z,8.34
2022-12-02T15:25:30.938Z,8.39
2022-12-02T15:27:58.658Z,8.39
2022-12-02T15:30:26.459Z,8.21
2022-12-02T15:32:54.177Z,8.29
2022-12-02T15:35:22.083Z,8.09
2022-12-02T15:37:49.991Z,8.34
2022-12-02T15:40:19.285Z,8.37
2022-12-02T15:42:46.964Z,7.79
2022-12-02T15:45:14.908Z,7.91
2022-12-02T15:47:42.697Z,7.98
2022-12-02T15:50:11.175Z,7.92
2022-12-02T15:52:38.933Z,7.71
2022-12-02T15:55:07.907Z,7.99
2022-12-02T15:57:37.013Z,7.77
2022-12-02T16:00:05.410Z,7.67
2022-12-02T16:02:33.271Z,7.72
2022-12-02T16:05:01.057Z,7.40
2022-12-02T16:07:28.879Z,7.48
2022-12-02T16:09:56.606Z,7.46
2022-12-02T16:12:24.291Z,7.54
2022-12-02T16:14:55.556Z,7.59
2022-12-02T16:17:23.606Z,7.60
2022-12-02T16:19:51.301Z,7.56
2022-12-02T16:22:19.052Z,7.53
2022-12-02T16:24:46.800Z,7.60
2022-12-02T16:27:14.581Z,7.74
2022-12-02T16:29:42.430Z,7.50
2022-12-02T16:32:15.407Z,7.57
2022-12-02T16:34:47.742Z,7.46
2022-12-02T16:37:17.269Z,7.36
2022-12-02T16:39:45.087Z,7.22
2022-12-02T16:42:12.784Z,7.13
2022-12-02T16:44:40.593Z,7.00
2022-12-02T16:47:08.533Z,7.16
2022-12-02T16:49:37.708Z,7.06
2022-12-02T16:52:05.701Z,7.19
2022-12-02T16:54:33.542Z,7.23
2022-12-02T16:57:01.296Z,7.26
2022-12-02T16:59:28.955Z,7.12
2022-12-02T17:01:56.831Z,7.21
2022-12-02T17:04:24.599Z,7.14
2022-12-02T17:06:53.717Z,7.31
2022-12-02T17:09:21.541Z,7.17
2022-12-02T17:11:49.333Z,7.16
2022-12-02T17:14:17.163Z,7.14
2022-12-02T17:16:44.896Z,7.15
2022-12-02T17:19:12.669Z,7.04
2022-12-02T17:21:40.448Z,7.05
2022-12-02T17:24:09.860Z,6.91
2022-12-02T17:26:37.605Z,6.93
2022-12-02T17:29:05.392Z,6.73
2022-12-02T17:31:33.152Z,6.62
2022-12-02T17:34:00.935Z,6.62
2022-12-02T17:36:28.663Z,6.63
2022-12-02T17:38:57.670Z,6.63
2022-12-02T17:41:26.964Z,6.58
2022-12-02T17:43:55.084Z,6.56
2022-12-02T17:46:22.891Z,6.68
2022-12-02T17:48:50.892Z,6.72
2022-12-02T17:51:19.039Z,6.77
2022-12-02T17:53:46.840Z,6.80
2022-12-02T17:56:14.535Z,6.69
2022-12-02T17:58:43.682Z,6.78
2022-12-02T18:01:12.552Z,6.67
2022-12-02T18:03:40.763Z,6.83
2022-12-02T18:06:09.236Z,6.76
2022-12-02T18:08:37.124Z,6.77
2022-12-02T18:11:05.018Z,7.02
2022-12-02T18:13:33.170Z,6.98
2022-12-02T18:16:02.336Z,6.74
2022-12-02T18:18:30.057Z,7.07
2022-12-02T18:20:57.875Z,7.02
2022-12-02T18:23:27.910Z,7.18
2022-12-02T18:25:55.845Z,6.74
2022-12-02T18:28:23.539Z,7.01
2022-12-02T18:30:51.450Z,7.22
2022-12-02T18:33:20.714Z,7.19
2022-12-02T18:35:48.531Z,7.27
2022-12-02T18:38:16.240Z,7.35
2022-12-02T18:40:43.947Z,7.47
2022-12-02T18:43:11.768Z,7.66
2022-12-02T18:45:39.476Z,7.67
2022-12-02T18:48:07.774Z,7.63
2022-12-02T18:50:36.959Z,7.45
2022-12-02T18:53:04.756Z,7.40
2022-12-02T18:55:32.557Z,7.39
2022-12-02T18:58:00.254Z,7.52
2022-12-02T19:00:30.151Z,7.48
2022-12-02T19:02:57.943Z,7.61
2022-12-02T19:05:25.804Z,7.67
2022-12-02T19:07:54.974Z,7.57
2022-12-02T19:10:23.524Z,7.60
2022-12-02T19:12:51.383Z,7.62
2022-12-02T19:15:19.268Z,7.74
2022-12-02T19:17:47.037Z,7.59
2022-12-02T19:20:15.032Z,7.60
2022-12-02T19:22:42.766Z,7.80
2022-12-02T19:25:12.547Z,7.68
2022-12-02T19:30:28.224Z,7.69
2022-12-02T19:32:56.131Z,7.86
2022-12-02T19:35:23.893Z,7.78
2022-12-02T19:37:51.656Z,7.82
2022-12-02T19:40:20.957Z,7.87
2022-12-02T19:42:48.769Z,7.82
2022-12-02T19:45:16.882Z,7.85
2022-12-02T19:47:44.644Z,7.60
2022-12-02T19:50:14.208Z,7.59
2022-12-02T19:52:42.105Z,7.36
2022-12-02T19:55:10.272Z,7.54
2022-12-02T19:57:39.693Z,7.40
2022-12-02T20:00:09.178Z,7.59
2022-12-02T20:02:38.340Z,7.50
2022-12-02T20:05:07.172Z,7.41
2022-12-02T20:07:35.151Z,7.22
2022-12-02T20:10:03.048Z,7.39
2022-12-02T20:12:30.778Z,7.29
2022-12-02T20:15:00.081Z,7.43
2022-12-02T20:17:27.823Z,7.36
2022-12-02T20:19:55.696Z,7.31
2022-12-02T20:22:23.493Z,7.31
2022-12-02T20:24:52.517Z,7.23
2022-12-02T20:27:20.485Z,7.26
2022-12-02T20:29:48.274Z,7.17
2022-12-02T20:32:18.745Z,7.04
2022-12-02T20:34:46.466Z,7.16
2022-12-02T20:37:14.185Z,6.97
2022-12-02T20:39:42.832Z,6.90
2022-12-02T20:42:11.107Z,6.91
2022-12-02T20:44:38.882Z,6.90
2022-12-02T20:47:07.211Z,6.82
2022-12-02T20:49:36.356Z,6.74
2022-12-02T20:52:04.220Z,6.67
2022-12-02T20:54:31.955Z,6.82
2022-12-02T20:56:59.700Z,6.59
2022-12-02T20:59:27.380Z,6.67
2022-12-02T21:01:55.243Z,6.35
2022-12-02T21:04:23.004Z,6.48
2022-12-02T21:06:52.075Z,6.43
2022-12-02T21:09:19.972Z,6.32
2022-12-02T21:11:47.936Z,6.15
2022-12-02T21:14:15.930Z,5.97
2022-12-02T21:16:43.803Z,6.07
2022-12-02T21:19:11.973Z,6.20
2022-12-02T21:21:40.161Z,6.09
2022-12-02T21:24:09.432Z,6.12
2022-12-02T21:26:37.241Z,6.22
2022-12-02T21:29:05.013Z,6.34
2022-12-02T21:31:32.835Z,6.22
2022-12-02T21:34:00.600Z,6.24
2022-12-02T21:36:28.341Z,6.15
2022-12-02T21:38:56.134Z,6.16
2022-12-02T21:41:25.465Z,6.11
2022-12-02T21:43:53.278Z,6.26
2022-12-02T21:46:21.197Z,6.10
2022-12-02T21:48:49.015Z,6.30
2022-12-02T21:51:17.078Z,6.22
2022-12-02T21:53:44.836Z,6.09
2022-12-02T21:56:12.659Z,6.19
2022-12-02T21:58:41.831Z,6.11
2022-12-02T22:01:27.094Z,6.21
2022-12-02T22:03:54.974Z,6.16
2022-12-02T22:06:22.672Z,6.21
2022-12-02T22:08:50.385Z,5.99
2022-12-02T22:11:18.248Z,5.80
2022-12-02T22:13:47.416Z,5.99
2022-12-02T22:16:15.426Z,6.02
2022-12-02T22:18:43.501Z,5.92
2022-12-02T22:21:11.324Z,6.21
2022-12-02T22:23:39.072Z,6.28
2022-12-02T22:26:06.940Z,6.11
2022-12-02T22:28:34.748Z,5.93
2022-12-02T22:31:03.864Z,5.73
2022-12-02T22:33:33.552Z,5.79
2022-12-02T22:36:01.779Z,5.90
2022-12-02T22:38:29.695Z,5.51
2022-12-02T22:40:57.431Z,5.78
2022-12-02T22:43:25.209Z,5.69
2022-12-02T22:45:53.153Z,5.73
2022-12-02T22:48:22.359Z,5.96
2022-12-02T22:50:50.080Z,5.75
2022-12-02T22:53:17.835Z,5.68
2022-12-02T22:55:45.606Z,6.00
2022-12-02T22:58:13.415Z,5.94
2022-12-02T23:00:41.150Z,6.04
2022-12-02T23:03:08.926Z,6.00
2022-12-02T23:05:38.071Z,5.85
2022-12-02T23:08:06.276Z,5.89
2022-12-02T23:10:35.885Z,5.99
2022-12-02T23:13:04.219Z,5.67
2022-12-02T23:15:37.640Z,5.61
2022-12-02T23:18:06.557Z,5.62
2022-12-02T23:20:34.304Z,5.60
2022-12-02T23:23:03.398Z,5.55
2022-12-02T23:25:31.156Z,5.46
2022-12-02T23:27:59.088Z,5.59
2022-12-02T23:30:29.341Z,5.52
2022-12-02T23:32:57.660Z,5.43
2022-12-02T23:35:25.458Z,5.61
2022-12-02T23:37:53.136Z,5.72
2022-12-02T23:40:22.509Z,5.85
2022-12-02T23:42:50.244Z,5.72
2022-12-02T23:45:18.141Z,5.94
2022-12-02T23:47:46.023Z,5.70
2022-12-02T23:50:13.811Z,5.87
2022-12-02T23:52:41.491Z,5.92
2022-12-02T23:55:10.885Z,5.63
2022-12-02T23:57:39.920Z,5.98
